Rusty Hill — WDA6027 — position and weather

sailwx.info

Track history (hours):
 
Tides and Currents Weather Stations Pressure Air Temp Water Temp Dewpoint Dewpoint Depression Visibility Wind Speed Wind Dir Waves Ship Positions

Rusty Hill

Owner: Blessey Enterprises, Inc., HARAHAN, LA. More information available from US FCC via Universal Licensing System.

Last reported at 2017-Dec-10 16:17 UTC. Time now 2017-Dec-16 12:52 UTC.
Position N 29°32' W 094°54'.

Length 43 m; draft 2.6 m.

Type: Tug. MMSI: 366826930.

Date/timePositionNaut miles runAvg speedWind from/ knotsBaromVisibWave heightAir tempDewpointWater temp
2017-Dec-10 16:17N 29°32' W 094°54'2 7.7
2017-Dec-10 16:00N 29°33' W 094°55'4 7.5
2017-Dec-10 15:30N 29°37' W 094°57'3 6.8
2017-Dec-10 15:00N 29°40' W 094°59'4 7.5
2017-Dec-10 14:30N 29°43' W 095°01'4 7.2
2017-Dec-10 14:00N 29°45' W 095°04'2 0.8
2017-Dec-10 11:55N 29°47' W 095°04'3 5.5
2017-Dec-10 11:23N 29°44' W 095°03'2 6.0
2017-Dec-10 11:00N 29°43' W 095°01'3 6.3
2017-Dec-10 10:30N 29°40' W 094°59'4 7.3
2017-Dec-10 10:00N 29°37' W 094°58'3 6.7
2017-Dec-10 09:30N 29°37' W 095°01'0 0.4
2017-Dec-10 09:00N 29°37' W 095°01'0 0.0
2017-Dec-10 08:30N 29°37' W 095°01'0 0.0
2017-Dec-10 08:00N 29°37' W 095°01'0 0.0
2017-Dec-10 07:30N 29°37' W 095°01'0 0.0
2017-Dec-10 07:00N 29°37' W 095°01'0 0.0
2017-Dec-10 06:30N 29°37' W 095°01'0 0.0
2017-Dec-10 06:00N 29°37' W 095°01'0 0.0
2017-Dec-10 05:30N 29°37' W 095°01'0 0.0
2017-Dec-10 05:00N 29°37' W 095°01'0 0.0
2017-Dec-10 04:30N 29°37' W 095°01'0 0.0
2017-Dec-10 04:00N 29°37' W 095°01'0 0.0
2017-Dec-10 03:30N 29°37' W 095°01'0 0.0
2017-Dec-10 03:00N 29°37' W 095°01'0 0.0
2017-Dec-10 02:30N 29°37' W 095°01'0 0.0
2017-Dec-10 02:00N 29°37' W 095°01'0 0.0
2017-Dec-10 01:30N 29°37' W 095°01'0 0.0
2017-Dec-10 01:00N 29°37' W 095°01'0 0.0
2017-Dec-10 00:30N 29°37' W 095°01'0 0.0
2017-Dec-10 00:00N 29°37' W 095°01'0 0.0
2017-Dec-09 23:30N 29°37' W 095°01'0 0.0
2017-Dec-09 23:00N 29°37' W 095°01'0 0.0
2017-Dec-09 22:30N 29°37' W 095°01'0 0.0
2017-Dec-09 22:00N 29°37' W 095°01'3 5.2
2017-Dec-09 21:29N 29°37' W 094°58'3 5.9
2017-Dec-09 20:59N 29°35' W 094°56'3 6.9
2017-Dec-09 20:30N 29°32' W 094°54'  
2017-Dec-01 18:27N 29°31' W 094°53'3 7.2
2017-Dec-01 18:00N 29°34' W 094°55'4 7.4
2017-Dec-01 17:30N 29°37' W 094°57'4 7.5
2017-Dec-01 17:00N 29°40' W 094°59'  
Track history (hours):
 
Tides and Currents Weather Stations Pressure Air Temp Water Temp Dewpoint Dewpoint Depression Visibility Wind Speed Wind Dir Waves Ship Positions

Rusty Hill

Owner: Blessey Enterprises, Inc., HARAHAN, LA. More information available from US FCC via Universal Licensing System.

Last reported at 2017-Dec-10 16:17 UTC. Time now 2017-Dec-16 12:52 UTC.
Position N 29°32' W 094°54'.

Length 43 m; draft 2.6 m.

Type: Tug. MMSI: 366826930.

Date/timePositionNaut miles runAvg speedWind from/ knotsBaromVisibWave heightAir tempDewpointWater temp
2017-Dec-10 16:17N 29°32' W 094°54'2 7.7
2017-Dec-10 16:00N 29°33' W 094°55'4 7.5
2017-Dec-10 15:30N 29°37' W 094°57'3 6.8
2017-Dec-10 15:00N 29°40' W 094°59'4 7.5
2017-Dec-10 14:30N 29°43' W 095°01'4 7.2
2017-Dec-10 14:00N 29°45' W 095°04'2 0.8
2017-Dec-10 11:55N 29°47' W 095°04'3 5.5
2017-Dec-10 11:23N 29°44' W 095°03'2 6.0
2017-Dec-10 11:00N 29°43' W 095°01'3 6.3
2017-Dec-10 10:30N 29°40' W 094°59'4 7.3
2017-Dec-10 10:00N 29°37' W 094°58'3 6.7
2017-Dec-10 09:30N 29°37' W 095°01'0 0.4
2017-Dec-10 09:00N 29°37' W 095°01'0 0.0
2017-Dec-10 08:30N 29°37' W 095°01'0 0.0
2017-Dec-10 08:00N 29°37' W 095°01'0 0.0
2017-Dec-10 07:30N 29°37' W 095°01'0 0.0
2017-Dec-10 07:00N 29°37' W 095°01'0 0.0
2017-Dec-10 06:30N 29°37' W 095°01'0 0.0
2017-Dec-10 06:00N 29°37' W 095°01'0 0.0
2017-Dec-10 05:30N 29°37' W 095°01'0 0.0
2017-Dec-10 05:00N 29°37' W 095°01'0 0.0
2017-Dec-10 04:30N 29°37' W 095°01'0 0.0
2017-Dec-10 04:00N 29°37' W 095°01'0 0.0
2017-Dec-10 03:30N 29°37' W 095°01'0 0.0
2017-Dec-10 03:00N 29°37' W 095°01'0 0.0
2017-Dec-10 02:30N 29°37' W 095°01'0 0.0
2017-Dec-10 02:00N 29°37' W 095°01'0 0.0
2017-Dec-10 01:30N 29°37' W 095°01'0 0.0
2017-Dec-10 01:00N 29°37' W 095°01'0 0.0
2017-Dec-10 00:30N 29°37' W 095°01'0 0.0
2017-Dec-10 00:00N 29°37' W 095°01'0 0.0
2017-Dec-09 23:30N 29°37' W 095°01'0 0.0
2017-Dec-09 23:00N 29°37' W 095°01'0 0.0
2017-Dec-09 22:30N 29°37' W 095°01'0 0.0
2017-Dec-09 22:00N 29°37' W 095°01'3 5.2
2017-Dec-09 21:29N 29°37' W 094°58'3 5.9
2017-Dec-09 20:59N 29°35' W 094°56'3 6.9
2017-Dec-09 20:30N 29°32' W 094°54'  
2017-Dec-01 18:27N 29°31' W 094°53'3 7.2
2017-Dec-01 18:00N 29°34' W 094°55'4 7.4
2017-Dec-01 17:30N 29°37' W 094°57'4 7.5
2017-Dec-01 17:00N 29°40' W 094°59'  

Dump ship's entire track history